Wilkinson, Indiana
Current Conditions -  °F | °C
As of 5:35 PM on Monday 22 Dec 2014 (Local Time) from KMQJ Reporting Station
Broken Clouds Broken Clouds  
Wind Chill:   Ceiling: 2400
Heat Index:   Visibility: 10mi
Dew Point:   Wind: 8mph
Humidity: 70%   Direction: 120°ESE
Pressure: 29.77"   Gusts: NA
Location:  39.89°N, 85.61°W
Report Text: KMQJ 222235Z AUTO 12007KT 10SM SCT008 BKN024 05/00 A2977 RMK AO1
Loading
Personal Weather Stations






























Interactive Weather Map New forecast layout! Learn more

10-Day Weather Forecast

Advertisements
Track Severe Weather on mobile